sensor_id;sensor_type;location;lat;lon;timestamp;pressure;altitude;pressure_sealevel;temperature;humidity
20612;BME280;10465;42.686;23.364;2023-02-10T00:01:18;96762.06;;;-1.89;50.30
20612;BME280;10465;42.686;23.364;2023-02-10T00:03:46;96779.50;;;-1.83;50.70
20612;BME280;10465;42.686;23.364;2023-02-10T00:06:12;96734.72;;;-2.06;50.48
20612;BME280;10465;42.686;23.364;2023-02-10T00:08:38;96769.41;;;-1.78;50.71
20612;BME280;10465;42.686;23.364;2023-02-10T00:11:06;96769.41;;;-1.78;50.66
20612;BME280;10465;42.686;23.364;2023-02-10T00:13:33;96745.88;;;-1.91;50.41
20612;BME280;10465;42.686;23.364;2023-02-10T00:16:00;96748.03;;;-1.94;50.40
20612;BME280;10465;42.686;23.364;2023-02-10T00:18:26;96737.38;;;-2.00;50.44
20612;BME280;10465;42.686;23.364;2023-02-10T00:20:52;96731.91;;;-2.05;50.57
20612;BME280;10465;42.686;23.364;2023-02-10T00:23:18;96755.88;;;-2.03;50.64
20612;BME280;10465;42.686;23.364;2023-02-10T00:25:43;96766.28;;;-2.03;51.03
20612;BME280;10465;42.686;23.364;2023-02-10T00:28:09;96752.31;;;-2.16;51.11
20612;BME280;10465;42.686;23.364;2023-02-10T00:30:34;96757.06;;;-2.05;51.02
20612;BME280;10465;42.686;23.364;2023-02-10T00:32:59;96734.44;;;-2.26;51.13
20612;BME280;10465;42.686;23.364;2023-02-10T00:35:25;96711.16;;;-2.34;51.07
20612;BME280;10465;42.686;23.364;2023-02-10T00:37:50;96719.47;;;-2.24;51.27
20612;BME280;10465;42.686;23.364;2023-02-10T00:40:16;96667.41;;;-2.52;50.70
20612;BME280;10465;42.686;23.364;2023-02-10T00:42:42;96745.44;;;-2.09;51.25
20612;BME280;10465;42.686;23.364;2023-02-10T00:45:08;96725.47;;;-2.24;51.21
20612;BME280;10465;42.686;23.364;2023-02-10T00:47:34;96745.25;;;-2.08;51.15
20612;BME280;10465;42.686;23.364;2023-02-10T00:49:59;96706.25;;;-2.29;51.03
20612;BME280;10465;42.686;23.364;2023-02-10T00:52:25;96699.06;;;-2.27;51.21
20612;BME280;10465;42.686;23.364;2023-02-10T00:54:50;96734.59;;;-2.13;51.44
20612;BME280;10465;42.686;23.364;2023-02-10T00:57:16;96736.22;;;-2.12;51.61
20612;BME280;10465;42.686;23.364;2023-02-10T00:59:41;96731.91;;;-2.05;51.78
20612;BME280;10465;42.686;23.364;2023-02-10T01:02:07;96710.78;;;-2.16;51.38
20612;BME280;10465;42.686;23.364;2023-02-10T01:04:33;96645.94;;;-2.76;52.35
20612;BME280;10465;42.686;23.364;2023-02-10T01:06:58;96730.38;;;-2.29;52.64
20612;BME280;10465;42.686;23.364;2023-02-10T01:09:24;96724.22;;;-2.28;52.75
20612;BME280;10465;42.686;23.364;2023-02-10T01:11:49;96700.59;;;-2.47;52.82
20612;BME280;10465;42.686;23.364;2023-02-10T01:14:15;96725.63;;;-2.40;53.25
20612;BME280;10465;42.686;23.364;2023-02-10T01:16:40;96732.25;;;-2.37;53.17
20612;BME280;10465;42.686;23.364;2023-02-10T01:19:06;96722.44;;;-2.42;52.91
20612;BME280;10465;42.686;23.364;2023-02-10T01:21:32;96721.16;;;-2.46;53.64
20612;BME280;10465;42.686;23.364;2023-02-10T01:23:58;96706.69;;;-2.55;53.76
20612;BME280;10465;42.686;23.364;2023-02-10T01:26:24;96720.53;;;-2.48;53.45
20612;BME280;10465;42.686;23.364;2023-02-10T01:28:49;96675.78;;;-2.80;53.35
20612;BME280;10465;42.686;23.364;2023-02-10T01:31:18;96679.81;;;-2.77;53.45
20612;BME280;10465;42.686;23.364;2023-02-10T01:33:44;96705.03;;;-2.71;53.60
20612;BME280;10465;42.686;23.364;2023-02-10T01:36:12;96709.59;;;-2.73;53.68
20612;BME280;10465;42.686;23.364;2023-02-10T01:38:38;96690.72;;;-2.82;53.96
20612;BME280;10465;42.686;23.364;2023-02-10T01:41:04;96671.94;;;-2.84;53.81
20612;BME280;10465;42.686;23.364;2023-02-10T01:43:30;96712.91;;;-2.64;53.46
20612;BME280;10465;42.686;23.364;2023-02-10T01:45:56;96676.69;;;-2.72;54.07
20612;BME280;10465;42.686;23.364;2023-02-10T01:48:23;96686.81;;;-2.63;53.96
20612;BME280;10465;42.686;23.364;2023-02-10T01:50:57;96691.75;;;-2.53;53.83
20612;BME280;10465;42.686;23.364;2023-02-10T01:53:25;96683.34;;;-2.55;53.63
20612;BME280;10465;42.686;23.364;2023-02-10T01:55:53;96690.41;;;-2.49;54.00
20612;BME280;10465;42.686;23.364;2023-02-10T01:58:24;96680.38;;;-2.67;54.24
20612;BME280;10465;42.686;23.364;2023-02-10T02:00:50;96684.50;;;-2.58;54.23
20612;BME280;10465;42.686;23.364;2023-02-10T02:03:16;96667.13;;;-2.72;53.75
20612;BME280;10465;42.686;23.364;2023-02-10T02:05:43;96687.16;;;-2.66;53.97
20612;BME280;10465;42.686;23.364;2023-02-10T02:08:24;96685.03;;;-2.62;54.16
20612;BME280;10465;42.686;23.364;2023-02-10T02:14:10;96670.69;;;-2.73;53.21
20612;BME280;10465;42.686;23.364;2023-02-10T02:24:47;96669.19;;;-2.82;54.37
20612;BME280;10465;42.686;23.364;2023-02-10T02:32:28;96613.16;;;-3.21;55.11
20612;BME280;10465;42.686;23.364;2023-02-10T02:35:03;96665.72;;;-2.75;57.23
20612;BME280;10465;42.686;23.364;2023-02-10T02:37:31;96662.47;;;-2.77;56.98
20612;BME280;10465;42.686;23.364;2023-02-10T02:39:58;96640.56;;;-2.89;55.92
20612;BME280;10465;42.686;23.364;2023-02-10T02:42:31;96666.75;;;-2.84;57.43
20612;BME280;10465;42.686;23.364;2023-02-10T02:45:10;96649.75;;;-3.01;58.46
20612;BME280;10465;42.686;23.364;2023-02-10T02:53:02;96666.09;;;-3.01;59.01
20612;BME280;10465;42.686;23.364;2023-02-10T02:55:51;96661.56;;;-2.99;57.92
20612;BME280;10465;42.686;23.364;2023-02-10T02:58:32;96630.94;;;-3.18;57.84
20612;BME280;10465;42.686;23.364;2023-02-10T03:01:03;96654.25;;;-3.18;57.50
20612;BME280;10465;42.686;23.364;2023-02-10T03:03:32;96621.66;;;-3.50;57.76
20612;BME280;10465;42.686;23.364;2023-02-10T03:05:59;96624.34;;;-3.66;58.20
20612;BME280;10465;42.686;23.364;2023-02-10T03:08:25;96643.34;;;-3.51;58.10
20612;BME280;10465;42.686;23.364;2023-02-10T03:10:51;96653.66;;;-3.43;57.25
20612;BME280;10465;42.686;23.364;2023-02-10T03:13:16;96657.50;;;-3.39;57.08
20612;BME280;10465;42.686;23.364;2023-02-10T03:15:42;96630.34;;;-3.66;56.65
20612;BME280;10465;42.686;23.364;2023-02-10T03:18:08;96645.66;;;-3.56;56.81
20612;BME280;10465;42.686;23.364;2023-02-10T03:20:33;96645.28;;;-3.53;56.66
20612;BME280;10465;42.686;23.364;2023-02-10T03:22:59;96636.63;;;-3.60;56.21
20612;BME280;10465;42.686;23.364;2023-02-10T03:25:24;96663.81;;;-3.41;56.49
20612;BME280;10465;42.686;23.364;2023-02-10T03:27:50;96654.03;;;-3.54;56.25
20612;BME280;10465;42.686;23.364;2023-02-10T03:30:15;96662.03;;;-3.41;56.32
20612;BME280;10465;42.686;23.364;2023-02-10T03:32:40;96667.91;;;-3.47;56.50
20612;BME280;10465;42.686;23.364;2023-02-10T03:35:06;96644.13;;;-3.74;57.22
20612;BME280;10465;42.686;23.364;2023-02-10T03:37:32;96667.63;;;-3.52;56.93
20612;BME280;10465;42.686;23.364;2023-02-10T03:39:57;96650.47;;;-3.53;57.35
20612;BME280;10465;42.686;23.364;2023-02-10T03:42:22;96653.25;;;-3.55;57.19
20612;BME280;10465;42.686;23.364;2023-02-10T03:44:48;96634.63;;;-3.81;57.49
20612;BME280;10465;42.686;23.364;2023-02-10T03:47:13;96637.53;;;-3.76;57.57
20612;BME280;10465;42.686;23.364;2023-02-10T03:49:39;96639.56;;;-3.63;57.90
20612;BME280;10465;42.686;23.364;2023-02-10T03:52:04;96644.34;;;-3.52;57.20
20612;BME280;10465;42.686;23.364;2023-02-10T03:54:30;96591.56;;;-3.74;56.92
20612;BME280;10465;42.686;23.364;2023-02-10T03:56:56;96641.63;;;-3.36;58.55
20612;BME280;10465;42.686;23.364;2023-02-10T03:59:21;96617.56;;;-3.44;59.88
20612;BME280;10465;42.686;23.364;2023-02-10T04:01:47;96616.88;;;-3.61;59.83
20612;BME280;10465;42.686;23.364;2023-02-10T04:04:13;96612.97;;;-3.57;59.77
20612;BME280;10465;42.686;23.364;2023-02-10T04:06:38;96609.75;;;-3.59;59.60
20612;BME280;10465;42.686;23.364;2023-02-10T04:09:04;96632.81;;;-3.50;57.59
20612;BME280;10465;42.686;23.364;2023-02-10T04:11:29;96618.72;;;-3.70;56.83
20612;BME280;10465;42.686;23.364;2023-02-10T04:13:54;96629.88;;;-3.69;56.59
20612;BME280;10465;42.686;23.364;2023-02-10T04:16:20;96618.56;;;-3.68;56.17
20612;BME280;10465;42.686;23.364;2023-02-10T04:18:48;96632.41;;;-3.61;55.97
20612;BME280;10465;42.686;23.364;2023-02-10T04:21:15;96613.78;;;-3.80;56.36
20612;BME280;10465;42.686;23.364;2023-02-10T04:23:41;96645.13;;;-3.75;56.45
20612;BME280;10465;42.686;23.364;2023-02-10T04:26:06;96606.69;;;-3.86;56.29
20612;BME280;10465;42.686;23.364;2023-02-10T04:28:35;96631.50;;;-3.68;55.96
20612;BME280;10465;42.686;23.364;2023-02-10T04:31:00;96613.44;;;-3.77;55.92
20612;BME280;10465;42.686;23.364;2023-02-10T04:33:27;96595.13;;;-3.98;55.41
20612;BME280;10465;42.686;23.364;2023-02-10T04:35:53;96638.69;;;-3.56;55.79
20612;BME280;10465;42.686;23.364;2023-02-10T04:38:20;96608.88;;;-3.75;57.04
20612;BME280;10465;42.686;23.364;2023-02-10T04:40:46;96608.69;;;-3.73;57.05
20612;BME280;10465;42.686;23.364;2023-02-10T04:43:12;96617.53;;;-3.59;56.39
20612;BME280;10465;42.686;23.364;2023-02-10T04:45:38;96648.47;;;-3.43;55.99
20612;BME280;10465;42.686;23.364;2023-02-10T04:48:04;96608.34;;;-3.93;56.40
20612;BME280;10465;42.686;23.364;2023-02-10T04:50:30;96643.38;;;-3.82;57.11
20612;BME280;10465;42.686;23.364;2023-02-10T04:52:56;96624.09;;;-4.03;57.24
20612;BME280;10465;42.686;23.364;2023-02-10T04:55:21;96651.41;;;-4.00;57.68
20612;BME280;10465;42.686;23.364;2023-02-10T04:57:47;96600.97;;;-4.35;57.66
20612;BME280;10465;42.686;23.364;2023-02-10T05:00:13;96599.88;;;-4.41;58.25
20612;BME280;10465;42.686;23.364;2023-02-10T05:02:39;96637.81;;;-4.25;58.20
20612;BME280;10465;42.686;23.364;2023-02-10T05:05:05;96629.59;;;-4.37;58.34
20612;BME280;10465;42.686;23.364;2023-02-10T05:07:31;96615.19;;;-4.31;57.78
20612;BME280;10465;42.686;23.364;2023-02-10T05:09:56;96658.66;;;-3.95;57.59
20612;BME280;10465;42.686;23.364;2023-02-10T05:12:22;96653.03;;;-3.99;57.57
20612;BME280;10465;42.686;23.364;2023-02-10T05:14:47;96635.94;;;-4.08;58.02
20612;BME280;10465;42.686;23.364;2023-02-10T05:17:13;96658.47;;;-3.94;59.23
20612;BME280;10465;42.686;23.364;2023-02-10T05:19:38;96669.25;;;-3.82;59.03
20612;BME280;10465;42.686;23.364;2023-02-10T05:22:04;96647.16;;;-3.93;58.11
20612;BME280;10465;42.686;23.364;2023-02-10T05:24:29;96663.53;;;-4.01;57.67
20612;BME280;10465;42.686;23.364;2023-02-10T05:26:55;96663.03;;;-3.96;58.56
20612;BME280;10465;42.686;23.364;2023-02-10T05:29:20;96655.59;;;-3.99;59.10
20612;BME280;10465;42.686;23.364;2023-02-10T05:31:45;96697.56;;;-3.81;57.67
20612;BME280;10465;42.686;23.364;2023-02-10T05:34:11;96680.19;;;-4.03;57.95
20612;BME280;10465;42.686;23.364;2023-02-10T05:36:36;96702.00;;;-3.98;58.71
20612;BME280;10465;42.686;23.364;2023-02-10T05:39:02;96677.34;;;-4.16;58.95
20612;BME280;10465;42.686;23.364;2023-02-10T05:41:46;96622.19;;;-4.48;58.56
20612;BME280;10465;42.686;23.364;2023-02-10T05:44:12;96679.59;;;-4.13;58.76
20612;BME280;10465;42.686;23.364;2023-02-10T05:46:37;96675.59;;;-4.24;59.59
20612;BME280;10465;42.686;23.364;2023-02-10T05:49:03;96716.47;;;-4.19;60.26
20612;BME280;10465;42.686;23.364;2023-02-10T05:51:28;96680.84;;;-4.40;60.52
20612;BME280;10465;42.686;23.364;2023-02-10T05:53:54;96681.59;;;-4.32;60.19
20612;BME280;10465;42.686;23.364;2023-02-10T05:56:19;96685.69;;;-4.37;59.88
20612;BME280;10465;42.686;23.364;2023-02-10T05:58:45;96714.53;;;-4.26;60.80
20612;BME280;10465;42.686;23.364;2023-02-10T06:01:11;96700.53;;;-4.39;60.80
20612;BME280;10465;42.686;23.364;2023-02-10T06:03:36;96684.09;;;-4.55;61.14
20612;BME280;10465;42.686;23.364;2023-02-10T06:06:02;96718.44;;;-4.30;61.31
20612;BME280;10465;42.686;23.364;2023-02-10T06:08:28;96720.06;;;-4.29;61.08
20612;BME280;10465;42.686;23.364;2023-02-10T06:10:53;96713.28;;;-4.38;60.87
20612;BME280;10465;42.686;23.364;2023-02-10T06:13:19;96711.19;;;-4.34;61.07
20612;BME280;10465;42.686;23.364;2023-02-10T06:15:45;96723.75;;;-4.23;60.17
20612;BME280;10465;42.686;23.364;2023-02-10T06:18:10;96723.75;;;-4.23;59.92
20612;BME280;10465;42.686;23.364;2023-02-10T06:20:36;96732.28;;;-4.14;59.63
20612;BME280;10465;42.686;23.364;2023-02-10T06:23:01;96736.81;;;-4.08;59.54
20612;BME280;10465;42.686;23.364;2023-02-10T06:25:27;96728.06;;;-4.07;58.40
20612;BME280;10465;42.686;23.364;2023-02-10T06:27:53;96741.78;;;-3.99;58.57
20612;BME280;10465;42.686;23.364;2023-02-10T06:30:18;96695.78;;;-4.19;58.37
20612;BME280;10465;42.686;23.364;2023-02-10T06:32:44;96737.00;;;-3.79;58.45
20612;BME280;10465;42.686;23.364;2023-02-10T06:35:09;96753.59;;;-3.65;58.12
20612;BME280;10465;42.686;23.364;2023-02-10T06:37:35;96748.75;;;-3.60;58.18
20612;BME280;10465;42.686;23.364;2023-02-10T06:40:05;96744.94;;;-3.49;58.67
20612;BME280;10465;42.686;23.364;2023-02-10T06:42:31;96745.66;;;-3.32;57.89
20612;BME280;10465;42.686;23.364;2023-02-10T06:44:56;96752.75;;;-3.26;57.94
20612;BME280;10465;42.686;23.364;2023-02-10T06:47:22;96737.53;;;-3.29;58.38
20612;BME280;10465;42.686;23.364;2023-02-10T06:49:47;96719.25;;;-3.28;58.68
20612;BME280;10465;42.686;23.364;2023-02-10T06:52:13;96757.03;;;-2.87;57.42
20612;BME280;10465;42.686;23.364;2023-02-10T06:54:38;96754.00;;;-2.76;56.64
20612;BME280;10465;42.686;23.364;2023-02-10T06:57:04;96687.34;;;-3.05;55.91
20612;BME280;10465;42.686;23.364;2023-02-10T06:59:31;96712.97;;;-2.87;55.26
20612;BME280;10465;42.686;23.364;2023-02-10T07:01:57;96762.03;;;-2.48;55.10
20612;BME280;10465;42.686;23.364;2023-02-10T07:04:27;96764.47;;;-2.46;54.51
20612;BME280;10465;42.686;23.364;2023-02-10T07:06:53;96712.19;;;-2.73;54.56
20612;BME280;10465;42.686;23.364;2023-02-10T07:09:18;96701.81;;;-2.73;55.34
20612;BME280;10465;42.686;23.364;2023-02-10T07:11:44;96725.09;;;-2.35;54.52
20612;BME280;10465;42.686;23.364;2023-02-10T07:14:09;96744.63;;;-2.10;53.76
20612;BME280;10465;42.686;23.364;2023-02-10T07:16:34;96749.66;;;-1.93;53.31
20612;BME280;10465;42.686;23.364;2023-02-10T07:19:00;96724.03;;;-1.96;52.36
20612;BME280;10465;42.686;23.364;2023-02-10T07:21:25;96750.84;;;-1.75;52.20
20612;BME280;10465;42.686;23.364;2023-02-10T07:23:51;96734.78;;;-1.85;51.89
20612;BME280;10465;42.686;23.364;2023-02-10T07:26:16;96752.94;;;-1.70;51.13
20612;BME280;10465;42.686;23.364;2023-02-10T07:28:45;96747.94;;;-1.50;51.17
20612;BME280;10465;42.686;23.364;2023-02-10T07:31:10;96721.47;;;-1.60;51.28
20612;BME280;10465;42.686;23.364;2023-02-10T07:33:36;96739.53;;;-1.37;51.75
20612;BME280;10465;42.686;23.364;2023-02-10T07:36:03;96677.56;;;-1.77;51.97
20612;BME280;10465;42.686;23.364;2023-02-10T07:38:30;96739.09;;;-1.19;52.30
20612;BME280;10465;42.686;23.364;2023-02-10T07:40:56;96705.44;;;-1.28;52.15
20612;BME280;10465;42.686;23.364;2023-02-10T07:43:22;96728.25;;;-1.02;50.21
20612;BME280;10465;42.686;23.364;2023-02-10T07:45:48;96741.84;;;-0.85;49.81
20612;BME280;10465;42.686;23.364;2023-02-10T07:48:16;96720.22;;;-0.85;49.15
20612;BME280;10465;42.686;23.364;2023-02-10T07:50:42;96721.31;;;-0.73;49.20
20612;BME280;10465;42.686;23.364;2023-02-10T07:53:07;96733.00;;;-0.62;49.00
20612;BME280;10465;42.686;23.364;2023-02-10T07:55:33;96723.47;;;-0.55;49.56
20612;BME280;10465;42.686;23.364;2023-02-10T07:57:58;96747.19;;;-0.37;49.22
20612;BME280;10465;42.686;23.364;2023-02-10T08:00:24;96761.72;;;-0.21;49.42
20612;BME280;10465;42.686;23.364;2023-02-10T08:02:50;96758.59;;;-0.10;48.74
20612;BME280;10465;42.686;23.364;2023-02-10T08:05:15;96748.19;;;-0.10;47.84
20612;BME280;10465;42.686;23.364;2023-02-10T08:07:41;96749.47;;;0.01;47.23
20612;BME280;10465;42.686;23.364;2023-02-10T08:10:06;96718.78;;;-0.04;47.92
20612;BME280;10465;42.686;23.364;2023-02-10T08:12:32;96743.56;;;0.27;47.30
20612;BME280;10465;42.686;23.364;2023-02-10T08:14:58;96733.94;;;0.28;47.35
20612;BME280;10465;42.686;23.364;2023-02-10T08:17:23;96737.06;;;0.51;46.11
20612;BME280;10465;42.686;23.364;2023-02-10T08:19:49;96742.88;;;0.53;45.90
20612;BME280;10465;42.686;23.364;2023-02-10T08:22:14;96726.84;;;0.56;45.61
20612;BME280;10465;42.686;23.364;2023-02-10T08:24:40;96731.06;;;0.64;46.33
20612;BME280;10465;42.686;23.364;2023-02-10T08:27:05;96721.44;;;0.64;46.17
20612;BME280;10465;42.686;23.364;2023-02-10T08:29:31;96739.38;;;0.94;45.28
20612;BME280;10465;42.686;23.364;2023-02-10T08:31:56;96691.25;;;0.90;44.25
20612;BME280;10465;42.686;23.364;2023-02-10T08:34:22;96675.19;;;0.86;43.80
20612;BME280;10465;42.686;23.364;2023-02-10T08:36:47;96749.03;;;1.33;43.66
20612;BME280;10465;42.686;23.364;2023-02-10T08:39:14;96744.47;;;1.42;43.28
20612;BME280;10465;42.686;23.364;2023-02-10T08:41:40;96740.03;;;1.62;43.02
20612;BME280;10465;42.686;23.364;2023-02-10T08:44:06;96738.38;;;1.81;42.31
20612;BME280;10465;42.686;23.364;2023-02-10T08:46:33;96691.22;;;1.63;41.75
20612;BME280;10465;42.686;23.364;2023-02-10T08:48:59;96698.03;;;1.70;41.41
20612;BME280;10465;42.686;23.364;2023-02-10T08:51:27;96733.28;;;2.19;42.38
20612;BME280;10465;42.686;23.364;2023-02-10T08:53:53;96699.13;;;2.14;41.40
20612;BME280;10465;42.686;23.364;2023-02-10T08:56:21;96702.50;;;2.28;41.05
20612;BME280;10465;42.686;23.364;2023-02-10T08:58:47;96706.06;;;2.40;41.16
20612;BME280;10465;42.686;23.364;2023-02-10T09:01:19;96691.13;;;2.54;40.75
20612;BME280;10465;42.686;23.364;2023-02-10T09:03:45;96722.81;;;2.71;40.01
20612;BME280;10465;42.686;23.364;2023-02-10T09:06:18;96716.13;;;2.75;39.84
20612;BME280;10465;42.686;23.364;2023-02-10T09:08:45;96714.03;;;2.97;39.26
20612;BME280;10465;42.686;23.364;2023-02-10T09:11:13;96718.19;;;3.05;39.39
20612;BME280;10465;42.686;23.364;2023-02-10T09:13:39;96695.19;;;3.13;39.25
20612;BME280;10465;42.686;23.364;2023-02-10T09:16:04;96704.47;;;3.34;38.54
20612;BME280;10465;42.686;23.364;2023-02-10T09:18:30;96669.63;;;3.40;38.51
20612;BME280;10465;42.686;23.364;2023-02-10T09:20:57;96709.63;;;3.91;37.49
20612;BME280;10465;42.686;23.364;2023-02-10T09:23:23;96702.06;;;4.01;37.81
20612;BME280;10465;42.686;23.364;2023-02-10T09:25:56;96698.09;;;4.47;37.26
20612;BME280;10465;42.686;23.364;2023-02-10T09:28:23;96680.06;;;4.69;36.42
20612;BME280;10465;42.686;23.364;2023-02-10T09:30:48;96675.53;;;4.76;35.47
20612;BME280;10465;42.686;23.364;2023-02-10T09:33:14;96709.41;;;4.78;36.33
20612;BME280;10465;42.686;23.364;2023-02-10T09:35:40;96707.00;;;4.76;36.76
20612;BME280;10465;42.686;23.364;2023-02-10T09:38:07;96687.22;;;4.62;36.38
20612;BME280;10465;42.686;23.364;2023-02-10T09:40:41;96698.03;;;4.84;36.22
20612;BME280;10465;42.686;23.364;2023-02-10T09:45:40;96670.47;;;5.05;34.95
20612;BME280;10465;42.686;23.364;2023-02-10T09:50:49;96687.16;;;5.34;35.12
20612;BME280;10465;42.686;23.364;2023-02-10T09:53:21;96678.41;;;5.40;34.91
20612;BME280;10465;42.686;23.364;2023-02-10T09:55:52;96672.13;;;5.53;34.50
20612;BME280;10465;42.686;23.364;2023-02-10T10:01:01;96685.13;;;5.71;33.42
20612;BME280;10465;42.686;23.364;2023-02-10T10:03:37;96677.84;;;5.97;33.94
20612;BME280;10465;42.686;23.364;2023-02-10T10:11:49;96647.34;;;6.64;32.39
20612;BME280;10465;42.686;23.364;2023-02-10T10:14:21;96656.88;;;6.54;32.26
20612;BME280;10465;42.686;23.364;2023-02-10T10:17:10;96651.94;;;6.29;32.40
20612;BME280;10465;42.686;23.364;2023-02-10T10:31:01;96633.16;;;6.65;31.86
20612;BME280;10465;42.686;23.364;2023-02-10T10:36:22;96596.06;;;6.84;31.41
20612;BME280;10465;42.686;23.364;2023-02-10T10:38:51;96620.91;;;7.38;31.73
20612;BME280;10465;42.686;23.364;2023-02-10T10:41:18;96620.47;;;7.63;30.80
20612;BME280;10465;42.686;23.364;2023-02-10T10:43:50;96625.00;;;7.68;30.74
20612;BME280;10465;42.686;23.364;2023-02-10T10:46:28;96621.00;;;7.82;30.37
20612;BME280;10465;42.686;23.364;2023-02-10T10:48:56;96592.00;;;7.65;30.07
20612;BME280;10465;42.686;23.364;2023-02-10T10:51:22;96594.66;;;7.65;30.58
20612;BME280;10465;42.686;23.364;2023-02-10T10:53:51;96614.84;;;7.77;30.82
20612;BME280;10465;42.686;23.364;2023-02-10T10:58:50;96582.66;;;7.36;30.78
20612;BME280;10465;42.686;23.364;2023-02-10T11:01:17;96599.63;;;7.62;30.24
20612;BME280;10465;42.686;23.364;2023-02-10T11:03:43;96599.22;;;7.70;30.07
20612;BME280;10465;42.686;23.364;2023-02-10T11:06:15;96592.31;;;7.86;30.36
20612;BME280;10465;42.686;23.364;2023-02-10T11:08:51;96592.47;;;8.01;29.86
20612;BME280;10465;42.686;23.364;2023-02-10T11:11:18;96585.59;;;8.44;28.86
20612;BME280;10465;42.686;23.364;2023-02-10T11:13:50;96569.03;;;8.81;29.43
20612;BME280;10465;42.686;23.364;2023-02-10T11:16:18;96566.59;;;9.06;28.36
20612;BME280;10465;42.686;23.364;2023-02-10T11:19:01;96584.91;;;9.18;28.95
20612;BME280;10465;42.686;23.364;2023-02-10T11:21:37;96570.88;;;9.12;28.27
20612;BME280;10465;42.686;23.364;2023-02-10T11:24:03;96573.84;;;9.26;28.28
20612;BME280;10465;42.686;23.364;2023-02-10T11:26:40;96560.66;;;9.31;28.11
20612;BME280;10465;42.686;23.364;2023-02-10T11:29:10;96543.00;;;9.37;28.12
20612;BME280;10465;42.686;23.364;2023-02-10T11:31:38;96565.44;;;9.34;27.57
20612;BME280;10465;42.686;23.364;2023-02-10T11:34:27;96572.28;;;9.25;27.38
20612;BME280;10465;42.686;23.364;2023-02-10T11:36:55;96537.19;;;8.98;28.45
20612;BME280;10465;42.686;23.364;2023-02-10T11:39:23;96565.63;;;9.23;27.99
20612;BME280;10465;42.686;23.364;2023-02-10T11:41:51;96560.81;;;9.14;28.18
20612;BME280;10465;42.686;23.364;2023-02-10T11:44:28;96562.97;;;9.18;26.96
20612;BME280;10465;42.686;23.364;2023-02-10T11:46:59;96552.31;;;9.07;27.58
20612;BME280;10465;42.686;23.364;2023-02-10T11:49:28;96560.94;;;9.30;27.63
20612;BME280;10465;42.686;23.364;2023-02-10T11:51:59;96534.59;;;9.03;26.93
20612;BME280;10465;42.686;23.364;2023-02-10T11:54:26;96546.72;;;8.99;27.19
20612;BME280;10465;42.686;23.364;2023-02-10T12:00:20;96544.00;;;9.26;28.29
20612;BME280;10465;42.686;23.364;2023-02-10T12:11:49;96532.47;;;9.42;27.50
20612;BME280;10465;42.686;23.364;2023-02-10T12:17:29;96518.72;;;9.40;27.24
20612;BME280;10465;42.686;23.364;2023-02-10T12:20:18;96516.31;;;9.38;27.55
20612;BME280;10465;42.686;23.364;2023-02-10T12:25:39;96510.53;;;9.47;27.42
20612;BME280;10465;42.686;23.364;2023-02-10T12:31:03;96502.38;;;9.53;26.73
20612;BME280;10465;42.686;23.364;2023-02-10T12:36:29;96508.66;;;9.42;26.86
20612;BME280;10465;42.686;23.364;2023-02-10T12:52:42;96492.41;;;9.76;26.28
20612;BME280;10465;42.686;23.364;2023-02-10T12:55:22;96462.50;;;9.65;26.95
20612;BME280;10465;42.686;23.364;2023-02-10T12:57:52;96490.31;;;9.78;26.19
20612;BME280;10465;42.686;23.364;2023-02-10T13:03:34;96475.28;;;9.21;27.47
20612;BME280;10465;42.686;23.364;2023-02-10T13:08:40;96497.41;;;9.14;27.20
20612;BME280;10465;42.686;23.364;2023-02-10T13:14:19;96484.44;;;9.08;28.21
20612;BME280;10465;42.686;23.364;2023-02-10T13:16:55;96495.16;;;9.33;28.35
20612;BME280;10465;42.686;23.364;2023-02-10T13:19:33;96497.56;;;9.40;27.64
20612;BME280;10465;42.686;23.364;2023-02-10T13:22:08;96484.56;;;9.28;27.12
20612;BME280;10465;42.686;23.364;2023-02-10T13:24:50;96466.84;;;9.24;26.85
20612;BME280;10465;42.686;23.364;2023-02-10T13:27:53;96466.56;;;9.25;27.09
20612;BME280;10465;42.686;23.364;2023-02-10T13:33:35;96488.47;;;9.73;27.03
20612;BME280;10465;42.686;23.364;2023-02-10T13:36:05;96491.38;;;9.82;25.97
20612;BME280;10465;42.686;23.364;2023-02-10T13:38:34;96495.19;;;9.44;26.06
20612;BME280;10465;42.686;23.364;2023-02-10T13:41:00;96470.50;;;9.18;27.47
20612;BME280;10465;42.686;23.364;2023-02-10T13:43:46;96418.59;;;8.54;27.93
20612;BME280;10465;42.686;23.364;2023-02-10T13:46:27;96492.00;;;8.94;28.07
20612;BME280;10465;42.686;23.364;2023-02-10T13:48:55;96485.13;;;8.93;26.84
20612;BME280;10465;42.686;23.364;2023-02-10T13:51:34;96475.25;;;8.78;27.36
20612;BME280;10465;42.686;23.364;2023-02-10T13:54:01;96488.25;;;8.85;28.04
20612;BME280;10465;42.686;23.364;2023-02-10T13:56:29;96491.25;;;8.99;27.96
20612;BME280;10465;42.686;23.364;2023-02-10T13:59:00;96475.78;;;9.18;27.65
20612;BME280;10465;42.686;23.364;2023-02-10T14:01:41;96477.34;;;9.13;27.58
20612;BME280;10465;42.686;23.364;2023-02-10T14:06:43;96480.53;;;9.15;27.24
20612;BME280;10465;42.686;23.364;2023-02-10T14:09:34;96480.06;;;9.29;27.68
20612;BME280;10465;42.686;23.364;2023-02-10T14:12:05;96479.91;;;9.56;26.75
20612;BME280;10465;42.686;23.364;2023-02-10T14:14:43;96472.84;;;9.72;26.70
20612;BME280;10465;42.686;23.364;2023-02-10T14:19:42;96469.16;;;9.73;26.01
20612;BME280;10465;42.686;23.364;2023-02-10T14:24:54;96425.56;;;9.18;26.65
20612;BME280;10465;42.686;23.364;2023-02-10T14:27:21;96460.78;;;9.28;27.51
20612;BME280;10465;42.686;23.364;2023-02-10T14:29:55;96459.84;;;9.07;27.04
20612;BME280;10465;42.686;23.364;2023-02-10T14:32:21;96475.44;;;9.04;28.47
20612;BME280;10465;42.686;23.364;2023-02-10T14:34:59;96471.91;;;8.88;28.10
20612;BME280;10465;42.686;23.364;2023-02-10T14:37:25;96476.03;;;8.79;28.06
20612;BME280;10465;42.686;23.364;2023-02-10T14:39:57;96455.53;;;8.54;28.30
20612;BME280;10465;42.686;23.364;2023-02-10T14:42:25;96463.47;;;8.54;28.37
20612;BME280;10465;42.686;23.364;2023-02-10T14:44:53;96465.78;;;8.45;28.87
20612;BME280;10465;42.686;23.364;2023-02-10T14:47:37;96467.34;;;8.46;28.96
20612;BME280;10465;42.686;23.364;2023-02-10T14:50:05;96468.50;;;8.55;29.22